Time;durP1;ratioP1;P1;durP2;ratioP2;P2;SDS_P1;SDS_P2;PMS_P1;PMS_P2;Temp;Humidity;BMP_temperature;BMP_pressure;BME280_temperature;BME280_humidity;BME280_pressure;Samples;Min_cycle;Max_cycle;Signal;HPM_P1;HPM_P2
2022/03/06 00:00:08;;;;;;;24.85;12.25;;;;;;;1.06;98.09;102475.41;5019421;28;20109;-74
2022/03/06 00:02:33;;;;;;;26.05;12.15;;;;;;;1.05;97.78;102484.09;5011968;28;20049;-74
2022/03/06 00:04:59;;;;;;;25.25;11.75;;;;;;;1.03;97.70;102481.44;5026576;28;20465;-74
2022/03/06 00:07:24;;;;;;;26.92;12.95;;;;;;;1.02;97.82;102481.44;5031631;28;20057;-74
2022/03/06 00:09:49;;;;;;;26.80;12.20;;;;;;;0.98;97.97;102485.69;5031618;28;20036;-74
2022/03/06 00:12:15;;;;;;;26.83;12.13;;;;;;;0.95;97.82;102478.69;5031758;28;20021;-73
2022/03/06 00:14:40;;;;;;;27.92;12.15;;;;;;;0.93;97.76;102488.22;5030688;28;20548;-74
2022/03/06 00:17:05;;;;;;;26.30;12.55;;;;;;;0.86;97.92;102490.63;5031613;28;20033;-74
2022/03/06 00:19:31;;;;;;;30.65;12.63;;;;;;;0.85;98.04;102487.16;5031495;28;20058;-74
2022/03/06 00:21:56;;;;;;;25.45;11.88;;;;;;;0.81;98.26;102483.59;5031419;28;20021;-75
2022/03/06 00:24:21;;;;;;;24.85;11.60;;;;;;;0.79;98.09;102484.41;5032172;28;20022;-75
2022/03/06 00:26:47;;;;;;;29.42;13.07;;;;;;;0.74;98.05;102483.44;5030876;28;20418;-75
2022/03/06 00:29:13;;;;;;;23.02;11.15;;;;;;;0.70;98.31;102486.81;5031275;28;20056;-73
2022/03/06 00:31:39;;;;;;;26.90;12.02;;;;;;;0.64;98.12;102492.78;5031294;28;20105;-74
2022/03/06 00:34:04;;;;;;;28.45;12.70;;;;;;;0.61;98.43;102487.47;5031630;27;20171;-74
2022/03/06 00:36:30;;;;;;;25.65;12.18;;;;;;;0.55;98.33;102495.16;5030366;28;20117;-75
2022/03/06 00:38:55;;;;;;;27.17;12.43;;;;;;;0.50;98.92;102484.63;5031361;28;20072;-74
2022/03/06 00:41:22;;;;;;;27.60;12.73;;;;;;;0.46;98.88;102490.59;5031050;28;20090;-74
2022/03/06 00:43:48;;;;;;;28.65;13.18;;;;;;;0.44;99.44;102493.19;5031051;28;20108;-74
2022/03/06 00:46:13;;;;;;;32.20;13.70;;;;;;;0.42;100.00;102494.88;5030866;28;20121;-74
2022/03/06 00:48:39;;;;;;;28.15;13.30;;;;;;;0.40;99.65;102498.31;5012706;28;20469;-74
2022/03/06 00:51:04;;;;;;;25.92;12.85;;;;;;;0.36;99.49;102494.72;5011061;28;20385;-74
2022/03/06 00:53:29;;;;;;;27.42;13.48;;;;;;;0.35;99.40;102499.91;5011169;28;20030;-74
2022/03/06 00:55:55;;;;;;;29.33;12.82;;;;;;;0.33;99.95;102507.66;5013071;28;20047;-73
2022/03/06 00:58:20;;;;;;;27.10;13.32;;;;;;;0.34;100.00;102517.25;5030492;28;20522;-74
2022/03/06 01:00:47;;;;;;;30.02;13.20;;;;;;;0.35;99.97;102516.41;5031164;28;20021;-75
2022/03/06 01:03:16;;;;;;;28.23;13.00;;;;;;;0.34;100.00;102516.38;5031383;28;20021;-75
2022/03/06 01:05:42;;;;;;;30.73;13.32;;;;;;;0.32;100.00;102508.53;5030780;28;20510;-74
2022/03/06 01:08:09;;;;;;;29.77;12.73;;;;;;;0.34;100.00;102517.25;5029967;28;20029;-73
2022/03/06 01:10:36;;;;;;;27.40;13.18;;;;;;;0.34;99.99;102519.84;5030843;28;20443;-73
2022/03/06 01:13:03;;;;;;;30.08;13.85;;;;;;;0.32;100.00;102524.19;5030618;28;20104;-74
2022/03/06 01:15:29;;;;;;;25.77;12.27;;;;;;;0.28;99.90;102522.31;5030559;28;20018;-74
2022/03/06 01:17:55;;;;;;;28.23;12.95;;;;;;;0.26;99.90;102516.19;5030259;28;20033;-75
2022/03/06 01:20:20;;;;;;;31.83;13.85;;;;;;;0.25;100.00;102527.47;5030224;28;20060;-73
2022/03/06 01:22:47;;;;;;;27.33;12.63;;;;;;;0.21;100.00;102531.69;5030474;28;20029;-74
2022/03/06 01:25:12;;;;;;;27.58;13.23;;;;;;;0.21;100.00;102525.63;5030410;28;20053;-73
2022/03/06 01:27:38;;;;;;;29.77;13.93;;;;;;;0.15;100.00;102535.06;5016476;28;20029;-74
2022/03/06 01:30:06;;;;;;;26.98;13.02;;;;;;;0.15;100.00;102531.53;5030025;28;20033;-74
2022/03/06 01:32:32;;;;;;;32.05;14.10;;;;;;;0.16;100.00;102539.41;5030246;28;20708;-74
2022/03/06 01:34:58;;;;;;;28.30;12.82;;;;;;;0.13;100.00;102536.72;5030365;28;20033;-74
2022/03/06 01:37:23;;;;;;;28.65;12.65;;;;;;;0.13;100.00;102541.06;5015857;28;20129;-74
2022/03/06 01:39:50;;;;;;;27.65;13.02;;;;;;;0.06;100.00;102542.59;5015821;28;20044;-73
2022/03/06 01:42:15;;;;;;;29.10;13.23;;;;;;;0.04;100.00;102552.13;5029908;28;20121;-75
2022/03/06 01:44:44;;;;;;;29.15;13.43;;;;;;;0.04;100.00;102549.50;5030381;28;20124;-75
2022/03/06 01:47:09;;;;;;;27.15;12.75;;;;;;;0.01;100.00;102546.81;5030348;28;20021;-74
2022/03/06 01:49:35;;;;;;;23.95;11.98;;;;;;;-0.02;100.00;102550.22;5018982;28;20049;-74
2022/03/06 01:52:00;;;;;;;25.15;12.95;;;;;;;-0.04;100.00;102551.00;5025641;28;20507;-74
2022/03/06 01:54:25;;;;;;;32.20;13.68;;;;;;;-0.01;100.00;102549.38;5030358;28;20026;-74
2022/03/06 01:56:50;;;;;;;25.38;12.93;;;;;;;-0.02;100.00;102549.34;5025397;28;20034;-75
2022/03/06 01:59:16;;;;;;;29.00;13.45;;;;;;;0.00;100.00;102550.28;5016239;28;20477;-74
2022/03/06 02:01:41;;;;;;;29.63;14.20;;;;;;;0.02;100.00;102547.72;5029777;28;20026;-74
2022/03/06 02:04:07;;;;;;;29.92;14.88;;;;;;;0.02;100.00;102552.91;5029350;28;20465;-74
2022/03/06 02:06:32;;;;;;;27.67;14.38;;;;;;;0.03;100.00;102547.75;5029980;28;20045;-74
2022/03/06 02:08:57;;;;;;;33.65;13.90;;;;;;;0.05;100.00;102547.78;5026942;28;20100;-74
2022/03/06 02:11:24;;;;;;;29.42;14.68;;;;;;;0.04;100.00;102553.81;5029412;28;20097;-73
2022/03/06 02:13:50;;;;;;;30.95;14.55;;;;;;;0.05;100.00;102555.59;5029812;28;20075;-74
2022/03/06 02:16:15;;;;;;;37.25;16.35;;;;;;;0.08;100.00;102558.28;5026157;28;20018;-74
2022/03/06 02:18:40;;;;;;;32.30;14.98;;;;;;;0.07;100.00;102549.59;5009962;28;20346;-74
2022/03/06 02:21:08;;;;;;;34.65;16.02;;;;;;;0.06;100.00;102550.41;5011183;28;20065;-74
2022/03/06 02:23:33;;;;;;;30.77;15.52;;;;;;;0.08;100.00;102556.56;5021938;28;20026;-73
2022/03/06 02:25:59;;;;;;;32.22;15.50;;;;;;;0.10;100.00;102547.06;5009628;28;20022;-74
2022/03/06 02:28:24;;;;;;;31.02;16.15;;;;;;;0.13;100.00;102549.75;5009870;28;20018;-74
2022/03/06 02:30:49;;;;;;;28.20;14.32;;;;;;;0.16;100.00;102549.81;5014829;28;20026;-74
2022/03/06 02:33:15;;;;;;;33.88;16.17;;;;;;;0.22;100.00;102548.22;5014121;28;20490;-73
2022/03/06 02:35:40;;;;;;;33.90;16.80;;;;;;;0.26;100.00;102550.94;5029786;28;20025;-74
2022/03/06 02:38:07;;;;;;;32.35;16.75;;;;;;;0.30;100.00;102557.97;5029664;28;20412;-74
2022/03/06 02:40:42;;;;;;;35.92;16.80;;;;;;;0.37;100.00;102558.16;5029624;28;20022;-75
2022/03/06 02:43:09;;;;;;;33.53;17.85;;;;;;;0.47;100.00;102555.81;5010775;28;20142;-74
2022/03/06 02:45:35;;;;;;;31.05;15.98;;;;;;;0.52;100.00;102561.13;5027801;28;20033;-74
2022/03/06 02:48:02;;;;;;;31.02;16.95;;;;;;;0.58;100.00;102556.06;5013142;28;20026;-74
2022/03/06 02:50:30;;;;;;;30.30;17.02;;;;;;;0.74;100.00;102553.81;5009753;28;20022;-74
2022/03/06 02:52:57;;;;;;;31.15;16.50;;;;;;;0.85;100.00;102552.34;5010764;28;20030;-74
2022/03/06 02:55:23;;;;;;;34.85;16.90;;;;;;;0.95;100.00;102558.69;5020412;28;20480;-74
2022/03/06 02:57:48;;;;;;;31.92;15.20;;;;;;;1.04;100.00;102555.41;5029267;28;20048;-74
2022/03/06 03:00:18;;;;;;;28.95;14.90;;;;;;;1.09;100.00;102552.03;5029453;28;20389;-74
2022/03/06 03:02:44;;;;;;;30.88;15.90;;;;;;;1.16;100.00;102552.16;5027250;28;20465;-75
2022/03/06 03:05:13;;;;;;;31.25;15.77;;;;;;;1.15;100.00;102551.28;5028944;28;20499;-75
2022/03/06 03:07:40;;;;;;;26.55;15.00;;;;;;;1.20;100.00;102561.81;5014376;28;20061;-74
2022/03/06 03:10:06;;;;;;;29.52;16.23;;;;;;;1.19;100.00;102562.66;5009504;28;20150;-73
2022/03/06 03:12:32;;;;;;;28.33;15.85;;;;;;;1.14;99.90;102566.06;5014110;28;20117;-74
2022/03/06 03:14:57;;;;;;;29.88;16.60;;;;;;;1.10;100.00;102577.28;5029607;28;20096;-74
2022/03/06 03:17:22;;;;;;;27.88;14.90;;;;;;;1.05;100.00;102567.56;5027509;28;20366;-75
2022/03/06 03:19:48;;;;;;;28.40;16.10;;;;;;;0.98;100.00;102575.28;5011330;28;20091;-75
2022/03/06 03:22:13;;;;;;;31.50;16.52;;;;;;;0.91;100.00;102577.69;5012923;28;20056;-74
2022/03/06 03:24:38;;;;;;;25.38;14.98;;;;;;;0.82;100.00;102573.16;5037626;27;20029;-74
2022/03/06 03:27:04;;;;;;;28.45;15.68;;;;;;;0.74;100.00;102575.59;5031809;28;20476;-74
2022/03/06 03:29:29;;;;;;;29.60;17.27;;;;;;;0.70;100.00;102570.25;5032240;28;20078;-74
2022/03/06 03:31:54;;;;;;;32.53;16.83;;;;;;;0.65;100.00;102576.25;5032120;28;20029;-75
2022/03/06 03:34:20;;;;;;;33.88;17.60;;;;;;;0.60;100.00;102579.56;5125760;27;20034;-74
2022/03/06 03:36:45;;;;;;;31.77;18.20;;;;;;;0.52;100.00;102571.56;5013931;28;20026;-75
2022/03/06 03:39:11;;;;;;;34.22;18.92;;;;;;;0.49;100.00;102577.56;5032054;28;20030;-74
2022/03/06 03:41:36;;;;;;;30.85;18.13;;;;;;;0.47;100.00;102587.09;5032052;28;20132;-74
2022/03/06 03:44:03;;;;;;;32.67;18.50;;;;;;;0.44;100.00;102584.41;5038823;27;20061;-74
2022/03/06 03:46:28;;;;;;;31.80;18.13;;;;;;;0.37;100.00;102576.38;5031959;28;20029;-74
2022/03/06 03:48:53;;;;;;;35.58;18.15;;;;;;;0.36;100.00;102585.94;5031606;28;20029;-74
2022/03/06 03:51:19;;;;;;;31.48;18.15;;;;;;;0.35;100.00;102581.56;5031888;28;20041;-74
2022/03/06 03:53:44;;;;;;;33.47;17.45;;;;;;;0.37;100.00;102585.09;5032255;28;20032;-74
2022/03/06 03:56:09;;;;;;;32.33;17.67;;;;;;;0.35;100.00;102585.91;5128789;27;20034;-74
2022/03/06 03:58:35;;;;;;;29.50;17.42;;;;;;;0.32;100.00;102592.78;5031826;27;20385;-74
2022/03/06 04:01:01;;;;;;;32.03;16.98;;;;;;;0.29;100.00;102582.28;5031513;28;20025;-74
2022/03/06 04:03:26;;;;;;;26.52;16.20;;;;;;;0.28;100.00;102582.25;5031341;28;20075;-74
2022/03/06 04:05:52;;;;;;;32.45;18.00;;;;;;;0.25;100.00;102583.03;5038740;27;20044;-74
2022/03/06 04:08:18;;;;;;;32.38;17.42;;;;;;;0.23;100.00;102582.13;5031772;28;20057;-74
2022/03/06 04:10:44;;;;;;;30.10;16.83;;;;;;;0.21;100.00;102591.63;5031227;28;20114;-74
2022/03/06 04:13:09;;;;;;;37.05;19.63;;;;;;;0.19;100.00;102582.00;5024310;28;20033;-74
2022/03/06 04:15:35;;;;;;;34.55;19.30;;;;;;;0.15;100.00;102591.47;5027919;27;20025;-74
2022/03/06 04:18:01;;;;;;;37.30;19.77;;;;;;;0.12;100.00;102589.66;5030434;28;20048;-74
2022/03/06 04:20:26;;;;;;;34.88;18.67;;;;;;;0.07;100.00;102587.78;5022217;28;20476;-74
2022/03/06 04:22:52;;;;;;;35.00;20.00;;;;;;;-0.04;100.00;102583.16;5031545;28;20038;-75
2022/03/06 04:25:17;;;;;;;37.92;19.08;;;;;;;-0.09;100.00;102587.38;5033508;27;20025;-73
2022/03/06 04:27:43;;;;;;;34.40;18.63;;;;;;;-0.14;100.00;102582.84;5133044;27;20374;-74
2022/03/06 04:30:09;;;;;;;37.80;20.00;;;;;;;-0.20;100.00;102594.00;5117639;27;20037;-74
2022/03/06 04:32:34;;;;;;;35.65;19.67;;;;;;;-0.27;100.00;102598.16;5031311;28;20441;-74
2022/03/06 04:35:00;;;;;;;40.38;20.20;;;;;;;-0.31;100.00;102590.22;5031329;28;20097;-75
2022/03/06 04:37:25;;;;;;;40.05;19.52;;;;;;;-0.37;100.00;102593.50;5037824;27;20049;-74
2022/03/06 04:39:50;;;;;;;39.42;19.98;;;;;;;-0.42;100.00;102601.19;5031386;28;20059;-74
2022/03/06 04:42:16;;;;;;;38.35;19.10;;;;;;;-0.46;100.00;102599.34;5030485;28;20041;-73
2022/03/06 04:44:41;;;;;;;33.78;18.20;;;;;;;-0.51;100.00;102604.41;5030886;28;20362;-74
2022/03/06 04:47:07;;;;;;;34.63;19.45;;;;;;;-0.53;100.00;102608.66;5065362;27;20049;-74
2022/03/06 04:49:32;;;;;;;33.45;17.75;;;;;;;-0.51;100.00;102611.34;5135041;27;20019;-74
2022/03/06 04:51:58;;;;;;;36.65;18.98;;;;;;;-0.54;100.00;102614.75;5093722;27;20034;-74
2022/03/06 04:54:23;;;;;;;31.13;17.73;;;;;;;-0.57;100.00;102622.44;5031197;28;20491;-74
2022/03/06 04:56:48;;;;;;;35.25;18.35;;;;;;;-0.59;100.00;102620.63;5035020;27;20068;-74
2022/03/06 04:59:14;;;;;;;32.08;18.73;;;;;;;-0.61;100.00;102627.53;5030603;28;20461;-73
2022/03/06 05:01:39;;;;;;;35.63;17.88;;;;;;;-0.61;100.00;102624.91;5030733;28;20481;-74
2022/03/06 05:04:04;;;;;;;32.80;18.13;;;;;;;-0.63;100.00;102632.66;5030685;28;20437;-74
2022/03/06 05:06:30;;;;;;;35.33;19.42;;;;;;;-0.66;100.00;102637.78;5030779;28;20021;-74
2022/03/06 05:08:55;;;;;;;32.80;17.83;;;;;;;-0.63;100.00;102635.25;5037777;27;20029;-74
2022/03/06 05:11:20;;;;;;;32.88;18.17;;;;;;;-0.65;100.00;102639.53;5030493;28;20385;-75
2022/03/06 05:13:46;;;;;;;34.05;18.27;;;;;;;-0.69;100.00;102641.16;5026477;28;20065;-74
2022/03/06 05:16:11;;;;;;;33.25;17.35;;;;;;;-0.68;100.00;102636.84;5018347;28;20104;-74
2022/03/06 05:18:37;;;;;;;33.00;16.85;;;;;;;-0.67;100.00;102642.06;5064825;27;20058;-74
2022/03/06 05:21:03;;;;;;;32.47;17.00;;;;;;;-0.65;100.00;102647.34;5133011;27;20026;-74
2022/03/06 05:23:28;;;;;;;27.30;16.20;;;;;;;-0.65;100.00;102644.75;5109983;27;20477;-74
2022/03/06 05:25:54;;;;;;;28.13;16.52;;;;;;;-0.64;100.00;102640.41;5030474;28;20022;-74
2022/03/06 05:28:20;;;;;;;30.42;16.30;;;;;;;-0.60;100.00;102640.56;5033709;28;20418;-74
2022/03/06 05:30:45;;;;;;;29.08;16.13;;;;;;;-0.61;100.00;102644.00;5133897;27;20031;-75
2022/03/06 05:33:11;;;;;;;29.98;17.25;;;;;;;-0.63;100.00;102643.06;5134428;27;20019;-75
2022/03/06 05:35:36;;;;;;;31.73;16.50;;;;;;;-0.68;100.00;102642.94;5045861;27;20025;-75
2022/03/06 05:38:01;;;;;;;27.98;14.90;;;;;;;-0.70;100.00;102646.31;5029380;28;20029;-74
2022/03/06 05:40:27;;;;;;;27.55;15.80;;;;;;;-0.70;100.00;102649.78;5095571;27;20463;-74
2022/03/06 05:42:52;;;;;;;29.48;16.35;;;;;;;-0.69;100.00;102646.38;5134117;27;20047;-74
2022/03/06 05:45:17;;;;;;;31.38;16.20;;;;;;;-0.68;100.00;102657.66;5086376;27;20075;-74
2022/03/06 05:47:43;;;;;;;31.05;16.73;;;;;;;-0.67;100.00;102656.81;5030014;28;20368;-75
2022/03/06 05:50:10;;;;;;;30.08;15.48;;;;;;;-0.59;100.00;102659.66;5046646;28;20488;-75
2022/03/06 05:52:36;;;;;;;27.58;14.68;;;;;;;-0.48;100.00;102663.47;5010310;28;20055;-74
2022/03/06 05:55:03;;;;;;;29.42;15.70;;;;;;;-0.43;100.00;102669.69;5011683;28;20018;-75
2022/03/06 05:57:28;;;;;;;23.65;14.65;;;;;;;-0.42;100.00;102667.97;5010932;28;20022;-75
2022/03/06 05:59:53;;;;;;;26.83;15.02;;;;;;;-0.46;100.00;102661.81;5020870;28;20102;-74
2022/03/06 06:02:22;;;;;;;27.73;14.82;;;;;;;-0.51;100.00;102671.19;5029844;28;20030;-74
2022/03/06 06:04:48;;;;;;;27.23;14.65;;;;;;;-0.48;100.00;102671.28;5030376;28;20026;-75
2022/03/06 06:07:14;;;;;;;27.30;15.07;;;;;;;-0.45;100.00;102678.28;5029504;28;20078;-74
2022/03/06 06:09:39;;;;;;;24.90;15.30;;;;;;;-0.45;100.00;102678.28;5029925;28;20480;-74
2022/03/06 06:12:05;;;;;;;22.90;13.98;;;;;;;-0.44;100.00;102688.75;5037045;28;20034;-75
2022/03/06 06:14:31;;;;;;;24.27;13.65;;;;;;;-0.40;100.00;102695.81;5030062;28;20028;-74
2022/03/06 06:16:56;;;;;;;23.92;14.68;;;;;;;-0.36;100.00;102696.78;5029134;28;20408;-75
2022/03/06 06:19:21;;;;;;;24.75;13.57;;;;;;;-0.34;100.00;102693.41;5029604;28;20029;-75
2022/03/06 06:21:47;;;;;;;26.33;14.30;;;;;;;-0.30;100.00;102703.91;5029828;28;20118;-74
2022/03/06 06:24:13;;;;;;;26.58;14.18;;;;;;;-0.27;99.95;102710.09;5023718;28;20030;-75
2022/03/06 06:26:39;;;;;;;22.85;13.07;;;;;;;-0.24;99.95;102710.19;5009647;28;20070;-75
2022/03/06 06:29:05;;;;;;;24.75;13.90;;;;;;;-0.26;99.75;102698.84;5029181;28;20033;-75
2022/03/06 06:31:30;;;;;;;23.65;12.95;;;;;;;-0.26;99.86;102705.78;5028598;28;20639;-74
2022/03/06 06:33:56;;;;;;;22.60;12.55;;;;;;;-0.27;99.21;102710.09;5032680;28;20516;-74
2022/03/06 06:36:22;;;;;;;25.27;13.68;;;;;;;-0.24;99.56;102712.78;5077423;28;20028;-73
2022/03/06 06:38:47;;;;;;;24.25;14.20;;;;;;;-0.26;99.15;102713.59;5080819;28;20375;-74
2022/03/06 06:41:13;;;;;;;23.08;13.50;;;;;;;-0.23;99.21;102721.47;5133350;27;20381;-74
2022/03/06 06:43:38;;;;;;;24.65;13.63;;;;;;;-0.20;99.36;102719.84;5133637;27;20048;-74
2022/03/06 06:46:04;;;;;;;22.27;13.02;;;;;;;-0.16;99.13;102720.84;5133598;28;20060;-74
2022/03/06 06:48:29;;;;;;;24.98;13.82;;;;;;;-0.20;99.19;102717.25;5127396;27;20106;-74
2022/03/06 06:50:54;;;;;;;20.30;13.30;;;;;;;-0.12;99.01;102716.59;5032509;28;20132;-75
2022/03/06 06:53:20;;;;;;;20.73;12.35;;;;;;;-0.11;98.37;102724.47;5033251;28;20033;-75
2022/03/06 06:55:45;;;;;;;19.80;12.63;;;;;;;-0.08;98.19;102734.94;5033422;28;20068;-74
2022/03/06 06:58:11;;;;;;;23.63;13.18;;;;;;;-0.05;98.08;102741.97;5071077;27;20102;-75
2022/03/06 07:00:36;;;;;;;22.30;12.88;;;;;;;-0.04;97.86;102736.84;5098568;27;20040;-74
2022/03/06 07:03:01;;;;;;;21.60;12.57;;;;;;;0.07;97.51;102741.47;5110201;27;20023;-74
2022/03/06 07:05:27;;;;;;;20.33;12.25;;;;;;;0.08;97.10;102751.94;5104988;27;20033;-75
2022/03/06 07:07:53;;;;;;;19.65;11.45;;;;;;;0.10;96.80;102738.94;5015949;28;20427;-76
2022/03/06 07:10:19;;;;;;;20.85;11.57;;;;;;;0.15;96.71;102755.59;5012231;28;20030;-74
2022/03/06 07:12:47;;;;;;;19.33;11.35;;;;;;;0.20;96.59;102745.31;5024686;28;20041;-75
2022/03/06 07:15:13;;;;;;;20.40;11.98;;;;;;;0.24;96.07;102750.63;5032672;28;20021;-75
2022/03/06 07:17:40;;;;;;;20.40;11.60;;;;;;;0.26;96.03;102741.16;5024188;28;20061;-76
2022/03/06 07:20:06;;;;;;;17.83;10.95;;;;;;;0.30;96.29;102755.16;5012299;28;20057;-75
2022/03/06 07:22:31;;;;;;;17.92;11.68;;;;;;;0.34;96.06;102758.75;5032448;28;20037;-75
2022/03/06 07:24:57;;;;;;;16.88;10.95;;;;;;;0.39;96.29;102770.19;5031586;28;20025;-75
2022/03/06 07:27:22;;;;;;;17.30;10.80;;;;;;;0.45;95.90;102766.03;5031855;28;20033;-75
2022/03/06 07:29:47;;;;;;;17.92;10.35;;;;;;;0.52;95.35;102768.81;5032053;28;20133;-74
2022/03/06 07:32:13;;;;;;;17.63;10.18;;;;;;;0.57;95.27;102773.28;5031929;28;20029;-76
2022/03/06 07:34:38;;;;;;;15.32;9.60;;;;;;;0.64;95.50;102767.41;5031741;28;20044;-75
2022/03/06 07:37:04;;;;;;;18.30;9.25;;;;;;;0.73;94.84;102787.66;5024038;28;20061;-74
2022/03/06 07:39:29;;;;;;;16.48;8.77;;;;;;;0.78;94.62;102788.66;5031524;28;20025;-76
2022/03/06 07:41:55;;;;;;;15.00;9.18;;;;;;;0.86;94.48;102791.47;5024854;28;20401;-76
2022/03/06 07:44:20;;;;;;;13.88;8.68;;;;;;;0.92;94.23;102785.53;5012010;28;20026;-75
2022/03/06 07:46:45;;;;;;;15.00;8.90;;;;;;;1.00;94.09;102783.13;5032829;27;20098;-76
2022/03/06 07:49:11;;;;;;;14.60;7.70;;;;;;;1.13;93.74;102778.25;5031261;28;20025;-76
2022/03/06 07:51:36;;;;;;;12.60;7.65;;;;;;;1.22;93.28;102795.88;5029527;28;20473;-76
2022/03/06 07:54:02;;;;;;;12.68;6.88;;;;;;;1.40;91.55;102791.97;5030703;28;20512;-76
2022/03/06 07:56:27;;;;;;;11.88;6.93;;;;;;;1.56;89.74;102785.38;5030487;28;20030;-76
2022/03/06 07:58:53;;;;;;;11.82;6.95;;;;;;;1.71;88.96;102793.59;5031380;28;20025;-74
2022/03/06 08:01:18;;;;;;;11.13;6.72;;;;;;;1.83;86.10;102793.00;5026962;28;20385;-74
2022/03/06 08:03:44;;;;;;;14.45;6.53;;;;;;;1.99;84.29;102793.34;5030752;28;20109;-74
2022/03/06 08:06:09;;;;;;;12.95;7.55;;;;;;;2.08;83.40;102799.66;5022094;28;20095;-76
2022/03/06 08:08:34;;;;;;;11.98;6.40;;;;;;;2.17;82.38;102803.31;5011701;28;20026;-76
2022/03/06 08:11:00;;;;;;;10.52;6.38;;;;;;;2.20;82.93;102806.00;5060222;27;20039;-75
2022/03/06 08:13:25;;;;;;;11.73;6.57;;;;;;;2.25;81.86;102812.22;5031523;28;20025;-74
2022/03/06 08:15:50;;;;;;;10.88;6.35;;;;;;;2.29;79.99;102814.94;5044531;27;20494;-76
2022/03/06 08:18:15;;;;;;;8.73;5.90;;;;;;;2.33;79.99;102810.66;5075822;27;20036;-75
2022/03/06 08:20:41;;;;;;;12.82;6.38;;;;;;;2.40;78.80;102816.88;5031702;28;20062;-76
2022/03/06 08:23:06;;;;;;;9.48;5.90;;;;;;;2.43;79.14;102816.94;5023930;28;20041;-76
2022/03/06 08:25:31;;;;;;;10.25;6.25;;;;;;;2.53;78.33;102820.63;5016326;28;20060;-75
2022/03/06 08:27:57;;;;;;;9.90;5.55;;;;;;;2.58;78.14;102821.63;5071570;27;20478;-75
2022/03/06 08:30:22;;;;;;;8.88;5.47;;;;;;;2.57;76.05;102827.69;5031123;28;20030;-74
2022/03/06 08:32:48;;;;;;;10.75;5.70;;;;;;;2.62;75.26;102826.94;5030637;28;20377;-75
2022/03/06 08:35:13;;;;;;;10.70;6.20;;;;;;;2.72;76.53;102830.63;5031152;28;20029;-74
2022/03/06 08:37:38;;;;;;;9.30;5.20;;;;;;;2.77;76.48;102822.88;5018635;28;20389;-75
2022/03/06 08:40:05;;;;;;;11.30;5.78;;;;;;;2.78;74.36;102822.03;5028798;28;20040;-75
2022/03/06 08:42:31;;;;;;;9.23;5.18;;;;;;;2.75;74.89;102829.78;5014004;28;20042;-74
2022/03/06 08:44:56;;;;;;;10.18;5.30;;;;;;;2.82;75.33;102825.59;5037093;28;20040;-75
2022/03/06 08:47:22;;;;;;;12.07;6.07;;;;;;;2.85;74.77;102834.38;5032996;28;20037;-74
2022/03/06 08:49:47;;;;;;;7.70;4.88;;;;;;;2.97;74.14;102835.44;5030684;28;20037;-76
2022/03/06 08:52:12;;;;;;;9.10;5.78;;;;;;;3.03;75.14;102827.72;5028332;28;20034;-75
2022/03/06 08:54:38;;;;;;;9.10;5.28;;;;;;;3.08;73.64;102833.91;5029911;28;20033;-75
2022/03/06 08:57:04;;;;;;;8.98;5.60;;;;;;;3.20;74.51;102839.38;5026152;28;20591;-74
2022/03/06 08:59:29;;;;;;;9.00;5.30;;;;;;;3.30;71.25;102832.59;5029935;28;20029;-74
2022/03/06 09:01:55;;;;;;;6.95;4.88;;;;;;;3.43;71.38;102841.53;5087651;27;20489;-74
2022/03/06 09:04:22;;;;;;;9.90;5.20;;;;;;;3.77;68.82;102845.59;5059419;27;20475;-75
2022/03/06 09:06:48;;;;;;;8.93;5.20;;;;;;;4.70;66.42;102830.25;5095141;27;20066;-74
2022/03/06 09:09:14;;;;;;;8.70;5.20;;;;;;;6.02;61.10;102821.81;5029174;28;20550;-77
2022/03/06 09:11:39;;;;;;;7.25;4.68;;;;;;;6.58;57.60;102841.38;5023073;28;20037;-75
2022/03/06 09:14:04;;;;;;;7.50;4.63;;;;;;;6.87;56.41;102832.72;5043989;27;20031;-75
2022/03/06 09:16:29;;;;;;;7.63;4.10;;;;;;;7.88;54.05;102836.28;5029792;28;20032;-75
2022/03/06 09:18:55;;;;;;;6.38;3.70;;;;;;;8.61;48.89;102823.78;5044130;27;20100;-74
2022/03/06 09:21:20;;;;;;;7.00;4.18;;;;;;;8.78;47.74;102826.31;5029739;28;20104;-76
2022/03/06 09:23:45;;;;;;;9.48;4.28;;;;;;;9.44;45.86;102822.38;5025047;28;20396;-74
2022/03/06 09:26:11;;;;;;;8.75;4.22;;;;;;;8.96;44.45;102829.75;5029813;28;20037;-74
2022/03/06 09:28:36;;;;;;;9.02;4.22;;;;;;;8.57;45.95;102832.59;5074077;27;20027;-76
2022/03/06 09:31:02;;;;;;;6.18;4.03;;;;;;;8.78;46.25;102831.59;5030175;28;20037;-74
2022/03/06 09:33:27;;;;;;;8.68;4.40;;;;;;;9.41;45.47;102840.03;5029393;28;20168;-74
2022/03/06 09:35:52;;;;;;;8.65;4.30;;;;;;;9.62;43.68;102839.84;5028695;28;20033;-74
2022/03/06 09:38:18;;;;;;;6.72;4.15;;;;;;;9.88;43.80;102853.75;5029009;28;20063;-73
2022/03/06 09:40:44;;;;;;;9.55;4.70;;;;;;;10.09;42.37;102835.00;5012483;28;20051;-74
2022/03/06 09:43:16;;;;;;;6.70;4.35;;;;;;;9.96;42.55;102836.91;5018976;28;20144;-75
2022/03/06 09:45:46;;;;;;;5.85;4.05;;;;;;;10.15;42.16;102832.28;5029868;28;20025;-74
2022/03/06 09:48:14;;;;;;;6.18;4.07;;;;;;;9.95;42.91;102835.13;5029311;28;20067;-76
2022/03/06 09:50:41;;;;;;;8.02;4.70;;;;;;;9.72;43.63;102830.06;5018463;28;20038;-75
2022/03/06 09:53:07;;;;;;;7.03;4.20;;;;;;;9.70;43.25;102826.56;5019142;28;20033;-75
2022/03/06 09:55:32;;;;;;;6.22;4.20;;;;;;;9.86;44.06;102835.25;5023061;28;20053;-75
2022/03/06 09:57:58;;;;;;;6.05;4.60;;;;;;;9.75;42.49;102834.47;5022499;28;20022;-73
2022/03/06 10:00:24;;;;;;;7.72;4.50;;;;;;;9.54;42.95;102838.16;5023530;28;20488;-73
2022/03/06 10:02:52;;;;;;;8.48;4.78;;;;;;;10.15;41.49;102827.00;5016529;28;20538;-76
2022/03/06 10:05:34;;;;;;;8.52;4.10;;;;;;;10.32;41.01;102831.22;5022147;28;20476;-75
2022/03/06 10:08:23;;;;;;;8.20;4.50;;;;;;;9.72;41.38;102835.38;5016619;28;20034;-73
2022/03/06 10:10:57;;;;;;;7.28;4.10;;;;;;;9.77;42.65;102833.56;5028396;28;20065;-77
2022/03/06 10:13:28;;;;;;;7.00;4.28;;;;;;;9.88;42.54;102838.72;5029305;28;20033;-76
2022/03/06 10:16:04;;;;;;;7.32;4.30;;;;;;;10.36;41.17;102825.03;5029703;28;20029;-76
2022/03/06 10:18:37;;;;;;;8.32;4.60;;;;;;;10.75;39.99;102833.34;5013823;28;20055;-76
2022/03/06 10:21:18;;;;;;;7.13;4.20;;;;;;;11.11;39.16;102832.84;5009796;28;20140;-77
2022/03/06 10:23:45;;;;;;;9.35;4.15;;;;;;;10.46;40.59;102833.72;5017411;28;20082;-76
2022/03/06 10:26:16;;;;;;;7.93;4.30;;;;;;;11.14;38.66;102838.97;5027652;28;20048;-76
2022/03/06 10:28:53;;;;;;;9.35;4.05;;;;;;;10.98;39.09;102830.38;5032899;28;20531;-77
2022/03/06 10:31:20;;;;;;;8.13;4.60;;;;;;;10.74;40.15;102841.31;5032635;28;20549;-75
2022/03/06 10:33:54;;;;;;;8.68;4.25;;;;;;;11.05;38.70;102851.47;5032619;28;20021;-75
2022/03/06 10:36:39;;;;;;;7.93;4.90;;;;;;;11.34;37.83;102860.78;5032685;28;20018;-77
2022/03/06 10:39:17;;;;;;;6.55;4.47;;;;;;;11.27;38.09;102850.25;5032410;28;20026;-77
2022/03/06 10:41:49;;;;;;;10.38;4.90;;;;;;;11.30;38.47;102852.00;5032483;28;20061;-74
2022/03/06 10:44:16;;;;;;;7.15;4.28;;;;;;;11.30;38.99;102849.34;5024159;27;20625;-76
2022/03/06 10:46:42;;;;;;;7.07;4.38;;;;;;;11.58;37.52;102857.72;5044809;27;21038;-76
2022/03/06 10:49:12;;;;;;;8.32;4.45;;;;;;;11.81;37.34;102853.81;5032260;28;20025;-74
2022/03/06 10:51:51;;;;;;;7.70;4.70;;;;;;;12.78;34.79;102851.06;5030470;28;20044;-76
2022/03/06 10:54:18;;;;;;;7.68;4.60;;;;;;;11.95;37.30;102850.91;5030606;28;20029;-77
2022/03/06 10:56:49;;;;;;;6.60;4.45;;;;;;;12.39;36.35;102851.88;5023605;28;20061;-74
2022/03/06 10:59:18;;;;;;;6.53;4.47;;;;;;;12.36;36.22;102840.41;5012763;28;20050;-74
2022/03/06 11:01:46;;;;;;;6.90;4.60;;;;;;;12.55;35.27;102851.56;5012153;28;20038;-76
2022/03/06 11:04:13;;;;;;;8.18;4.68;;;;;;;11.72;36.58;102852.19;5021079;28;20028;-74
2022/03/06 11:06:41;;;;;;;7.40;4.65;;;;;;;11.83;36.61;102852.00;5032412;28;20036;-75
2022/03/06 11:09:14;;;;;;;8.48;4.57;;;;;;;12.03;36.46;102845.47;5031724;28;20116;-76